sensor_id;sensor_type;location;lat;lon;timestamp;pressure;altitude;pressure_sealevel;temperature;humidity
48774;BME280;34576;0.000;0.000;2023-07-31T00:00:31;96839.09;;;19.02;58.75
48774;BME280;34576;0.000;0.000;2023-07-31T00:07:32;96833.75;;;19.02;59.03
48774;BME280;34576;0.000;0.000;2023-07-31T00:14:32;96828.50;;;18.81;59.45
48774;BME280;34576;0.000;0.000;2023-07-31T00:21:32;96819.44;;;18.82;59.68
48774;BME280;34576;0.000;0.000;2023-07-31T00:28:32;96815.84;;;19.07;58.95
48774;BME280;34576;0.000;0.000;2023-07-31T00:35:34;96821.56;;;18.90;59.08
48774;BME280;34576;0.000;0.000;2023-07-31T00:42:34;96807.69;;;18.88;59.39
48774;BME280;34576;0.000;0.000;2023-07-31T00:49:34;96803.44;;;18.42;60.84
48774;BME280;34576;0.000;0.000;2023-07-31T00:56:35;96806.66;;;18.84;59.59
48774;BME280;34576;0.000;0.000;2023-07-31T01:03:35;96803.63;;;19.36;58.07
48774;BME280;34576;0.000;0.000;2023-07-31T01:10:46;96803.22;;;18.78;59.58
48774;BME280;34576;0.000;0.000;2023-07-31T01:17:48;96784.31;;;18.80;59.76
48774;BME280;34576;0.000;0.000;2023-07-31T01:31:55;96781.31;;;18.92;59.36
48774;BME280;34576;0.000;0.000;2023-07-31T01:39:00;96776.47;;;18.54;60.19
48774;BME280;34576;0.000;0.000;2023-07-31T01:46:00;96780.56;;;18.36;60.57
48774;BME280;34576;0.000;0.000;2023-07-31T01:53:01;96758.25;;;18.67;59.89
48774;BME280;34576;0.000;0.000;2023-07-31T02:00:01;96752.97;;;18.17;60.75
48774;BME280;34576;0.000;0.000;2023-07-31T02:07:12;96747.50;;;17.92;61.31
48774;BME280;34576;0.000;0.000;2023-07-31T02:14:12;96742.78;;;18.34;59.68
48774;BME280;34576;0.000;0.000;2023-07-31T02:21:13;96739.66;;;18.17;60.19
48774;BME280;34576;0.000;0.000;2023-07-31T02:28:13;96734.66;;;18.10;60.50
48774;BME280;34576;0.000;0.000;2023-07-31T02:35:13;96728.91;;;18.37;59.18
48774;BME280;34576;0.000;0.000;2023-07-31T02:42:15;96725.00;;;18.64;58.15
48774;BME280;34576;0.000;0.000;2023-07-31T02:49:15;96731.59;;;17.67;60.54
48774;BME280;34576;0.000;0.000;2023-07-31T02:56:16;96728.91;;;18.37;58.77
48774;BME280;34576;0.000;0.000;2023-07-31T03:03:16;96746.78;;;17.61;60.24
48774;BME280;34576;0.000;0.000;2023-07-31T03:10:16;96750.09;;;18.08;58.91
48774;BME280;34576;0.000;0.000;2023-07-31T03:17:17;96744.34;;;18.75;57.07
48774;BME280;34576;0.000;0.000;2023-07-31T03:24:17;96750.78;;;18.34;57.65
48774;BME280;34576;0.000;0.000;2023-07-31T03:31:17;96735.59;;;18.29;57.58
48774;BME280;34576;0.000;0.000;2023-07-31T03:38:18;96735.59;;;18.69;57.11
48774;BME280;34576;0.000;0.000;2023-07-31T03:45:18;96725.28;;;19.51;56.26
48774;BME280;34576;0.000;0.000;2023-07-31T03:52:19;96723.31;;;19.61;57.10
48774;BME280;34576;0.000;0.000;2023-07-31T03:59:20;96721.59;;;19.71;57.20
48774;BME280;34576;0.000;0.000;2023-07-31T04:06:20;96720.47;;;19.77;57.59
48774;BME280;34576;0.000;0.000;2023-07-31T04:13:21;96726.06;;;19.80;58.01
48774;BME280;34576;0.000;0.000;2023-07-31T04:20:22;96724.09;;;19.86;58.41
48774;BME280;34576;0.000;0.000;2023-07-31T04:27:22;96712.06;;;19.89;58.67
48774;BME280;34576;0.000;0.000;2023-07-31T04:34:22;96723.06;;;19.34;55.33
48774;BME280;34576;0.000;0.000;2023-07-31T04:41:23;96722.09;;;18.55;56.86
48774;BME280;34576;0.000;0.000;2023-07-31T04:48:23;96734.69;;;18.00;58.27
48774;BME280;34576;0.000;0.000;2023-07-31T04:55:23;96735.22;;;18.81;56.37
48774;BME280;34576;0.000;0.000;2023-07-31T05:02:23;96721.22;;;19.34;55.52
48774;BME280;34576;0.000;0.000;2023-07-31T05:09:24;96735.47;;;19.48;55.51
48774;BME280;34576;0.000;0.000;2023-07-31T05:16:24;96728.94;;;19.60;55.58
48774;BME280;34576;0.000;0.000;2023-07-31T05:23:25;96730.25;;;19.62;55.85
48774;BME280;34576;0.000;0.000;2023-07-31T05:30:25;96722.16;;;19.67;55.82
48774;BME280;34576;0.000;0.000;2023-07-31T05:37:26;96725.00;;;19.76;55.91
48774;BME280;34576;0.000;0.000;2023-07-31T05:44:26;96729.00;;;19.79;56.12
48774;BME280;34576;0.000;0.000;2023-07-31T05:51:26;96733.75;;;19.82;56.03
48774;BME280;34576;0.000;0.000;2023-07-31T05:58:27;96724.69;;;19.83;56.02
48774;BME280;34576;0.000;0.000;2023-07-31T06:05:27;96723.03;;;19.87;55.99
48774;BME280;34576;0.000;0.000;2023-07-31T06:12:30;96715.03;;;19.87;55.98
48774;BME280;34576;0.000;0.000;2023-07-31T06:19:31;96711.78;;;19.90;55.94
48774;BME280;34576;0.000;0.000;2023-07-31T06:26:31;96693.09;;;19.90;55.97
48774;BME280;34576;0.000;0.000;2023-07-31T06:33:31;96701.59;;;19.92;56.07
48774;BME280;34576;0.000;0.000;2023-07-31T06:40:32;96689.84;;;19.93;56.10
48774;BME280;34576;0.000;0.000;2023-07-31T06:47:32;96689.84;;;19.93;56.14
48774;BME280;34576;0.000;0.000;2023-07-31T06:54:32;96699.16;;;19.96;56.20
48774;BME280;34576;0.000;0.000;2023-07-31T07:01:33;96721.31;;;19.96;56.04
48774;BME280;34576;0.000;0.000;2023-07-31T07:08:33;96709.56;;;19.97;56.22
48774;BME280;34576;0.000;0.000;2023-07-31T07:15:33;96718.09;;;19.99;56.30
48774;BME280;34576;0.000;0.000;2023-07-31T07:22:33;96696.72;;;19.99;56.39
48774;BME280;34576;0.000;0.000;2023-07-31T07:29:34;96688.44;;;20.01;56.38
48774;BME280;34576;0.000;0.000;2023-07-31T07:36:34;96680.13;;;20.03;56.50
48774;BME280;34576;0.000;0.000;2023-07-31T07:43:34;96679.31;;;20.02;56.37
48774;BME280;34576;0.000;0.000;2023-07-31T07:50:35;96675.81;;;20.07;56.60
48774;BME280;34576;0.000;0.000;2023-07-31T07:57:35;96670.94;;;20.09;56.63
48774;BME280;34576;0.000;0.000;2023-07-31T08:04:36;96688.00;;;20.13;56.67
48774;BME280;34576;0.000;0.000;2023-07-31T08:11:36;96679.97;;;20.13;56.64
48774;BME280;34576;0.000;0.000;2023-07-31T08:18:36;96682.34;;;20.14;56.86
48774;BME280;34576;0.000;0.000;2023-07-31T08:25:37;96664.16;;;20.16;56.71
48774;BME280;34576;0.000;0.000;2023-07-31T08:32:38;96659.63;;;20.17;56.91
48774;BME280;34576;0.000;0.000;2023-07-31T08:39:38;96659.63;;;20.17;57.04
48774;BME280;34576;0.000;0.000;2023-07-31T08:46:42;96670.50;;;20.21;57.06
48774;BME280;34576;0.000;0.000;2023-07-31T08:53:42;96671.81;;;20.23;57.08
48774;BME280;34576;0.000;0.000;2023-07-31T09:00:42;96650.69;;;20.27;57.02
48774;BME280;34576;0.000;0.000;2023-07-31T09:07:45;96643.94;;;20.29;56.95
48774;BME280;34576;0.000;0.000;2023-07-31T09:14:47;96648.72;;;20.32;57.17
48774;BME280;34576;0.000;0.000;2023-07-31T09:21:47;96632.09;;;20.35;57.12
48774;BME280;34576;0.000;0.000;2023-07-31T09:28:48;96613.91;;;20.38;56.97
48774;BME280;34576;0.000;0.000;2023-07-31T09:35:48;96603.22;;;20.38;57.05
48774;BME280;34576;0.000;0.000;2023-07-31T09:42:48;96587.19;;;20.38;57.01
48774;BME280;34576;0.000;0.000;2023-07-31T09:49:49;96581.53;;;20.39;57.18
48774;BME280;34576;0.000;0.000;2023-07-31T09:56:49;96564.72;;;20.39;57.08
48774;BME280;34576;0.000;0.000;2023-07-31T10:03:49;96559.38;;;20.39;56.96
48774;BME280;34576;0.000;0.000;2023-07-31T10:10:50;96548.41;;;20.40;57.05
48774;BME280;34576;0.000;0.000;2023-07-31T10:17:50;96549.19;;;20.41;57.23
48774;BME280;34576;0.000;0.000;2023-07-31T10:24:52;96520.59;;;20.41;57.16
48774;BME280;34576;0.000;0.000;2023-07-31T10:31:53;96514.19;;;20.42;57.52
48774;BME280;34576;0.000;0.000;2023-07-31T10:38:55;96518.41;;;20.43;57.54
48774;BME280;34576;0.000;0.000;2023-07-31T10:45:55;96516.25;;;20.45;57.57
48774;BME280;34576;0.000;0.000;2023-07-31T10:52:56;96519.72;;;20.46;57.49
48774;BME280;34576;0.000;0.000;2023-07-31T11:00:17;96518.13;;;20.45;57.70
48774;BME280;34576;0.000;0.000;2023-07-31T11:07:19;96503.38;;;20.47;57.73
48774;BME280;34576;0.000;0.000;2023-07-31T11:14:20;96508.13;;;20.50;57.84
48774;BME280;34576;0.000;0.000;2023-07-31T11:21:22;96500.41;;;20.49;57.77
48774;BME280;34576;0.000;0.000;2023-07-31T11:28:22;96500.41;;;20.49;57.96
48774;BME280;34576;0.000;0.000;2023-07-31T11:35:22;96502.00;;;20.50;57.85
48774;BME280;34576;0.000;0.000;2023-07-31T11:42:22;96500.94;;;20.51;58.00
48774;BME280;34576;0.000;0.000;2023-07-31T11:49:23;96492.91;;;20.51;57.83
48774;BME280;34576;0.000;0.000;2023-07-31T11:56:23;96484.91;;;20.51;57.82
48774;BME280;34576;0.000;0.000;2023-07-31T12:03:24;96481.13;;;20.52;57.92
48774;BME280;34576;0.000;0.000;2023-07-31T12:17:25;96439.66;;;20.55;57.96
48774;BME280;34576;0.000;0.000;2023-07-31T12:24:26;96421.47;;;20.57;57.88
48774;BME280;34576;0.000;0.000;2023-07-31T12:31:27;96410.47;;;20.58;57.91
48774;BME280;34576;0.000;0.000;2023-07-31T12:38:27;96417.38;;;20.59;57.92
48774;BME280;34576;0.000;0.000;2023-07-31T12:45:28;96410.47;;;20.58;58.01
48774;BME280;34576;0.000;0.000;2023-07-31T12:52:28;96398.69;;;20.59;58.17
48774;BME280;34576;0.000;0.000;2023-07-31T12:59:28;96395.22;;;20.59;58.01
48774;BME280;34576;0.000;0.000;2023-07-31T13:06:29;96385.81;;;20.61;58.04
48774;BME280;34576;0.000;0.000;2023-07-31T13:13:29;96396.50;;;20.61;58.16
48774;BME280;34576;0.000;0.000;2023-07-31T13:20:30;96389.28;;;20.62;58.15
48774;BME280;34576;0.000;0.000;2023-07-31T13:27:30;96382.06;;;20.62;58.09
48774;BME280;34576;0.000;0.000;2023-07-31T13:34:31;96380.47;;;20.61;58.26
48774;BME280;34576;0.000;0.000;2023-07-31T13:41:31;96371.06;;;20.64;58.11
48774;BME280;34576;0.000;0.000;2023-07-31T13:48:34;96354.22;;;20.63;58.16
48774;BME280;34576;0.000;0.000;2023-07-31T13:55:35;96337.13;;;20.64;58.20
48774;BME280;34576;0.000;0.000;2023-07-31T14:02:35;96337.91;;;20.65;58.29
48774;BME280;34576;0.000;0.000;2023-07-31T14:09:35;96326.44;;;20.64;58.32
48774;BME280;34576;0.000;0.000;2023-07-31T14:16:36;96330.69;;;20.65;58.52
48774;BME280;34576;0.000;0.000;2023-07-31T14:23:36;96321.59;;;20.66;58.10
48774;BME280;34576;0.000;0.000;2023-07-31T14:30:36;96315.44;;;20.66;58.26
48774;BME280;34576;0.000;0.000;2023-07-31T14:37:37;96311.72;;;20.67;58.26
48774;BME280;34576;0.000;0.000;2023-07-31T14:44:38;96312.19;;;20.69;58.14
48774;BME280;34576;0.000;0.000;2023-07-31T14:51:38;96303.38;;;20.68;58.45
48774;BME280;34576;0.000;0.000;2023-07-31T14:58:39;96299.63;;;20.69;58.45
48774;BME280;34576;0.000;0.000;2023-07-31T15:05:39;96301.19;;;20.71;58.26
48774;BME280;34576;0.000;0.000;2023-07-31T15:12:40;96289.41;;;20.72;58.43
48774;BME280;34576;0.000;0.000;2023-07-31T15:19:40;96276.56;;;20.74;58.57
48774;BME280;34576;0.000;0.000;2023-07-31T15:26:40;96268.81;;;20.72;58.49
48774;BME280;34576;0.000;0.000;2023-07-31T15:33:42;96267.41;;;20.75;58.56
48774;BME280;34576;0.000;0.000;2023-07-31T15:40:42;96267.41;;;20.75;58.36
48774;BME280;34576;0.000;0.000;2023-07-31T15:47:42;96259.91;;;20.77;58.42
48774;BME280;34576;0.000;0.000;2023-07-31T15:54:43;96253.75;;;20.76;58.44
48774;BME280;34576;0.000;0.000;2023-07-31T16:01:43;96259.09;;;20.76;58.61
48774;BME280;34576;0.000;0.000;2023-07-31T16:08:43;96267.94;;;20.77;58.47
48774;BME280;34576;0.000;0.000;2023-07-31T16:15:44;96258.00;;;20.77;58.61
48774;BME280;34576;0.000;0.000;2023-07-31T16:22:44;96261.00;;;20.76;58.62
48774;BME280;34576;0.000;0.000;2023-07-31T16:29:48;96266.03;;;20.77;58.62
48774;BME280;34576;0.000;0.000;2023-07-31T16:36:48;96249.22;;;20.77;58.75
48774;BME280;34576;0.000;0.000;2023-07-31T16:43:48;96237.72;;;20.76;58.73
48774;BME280;34576;0.000;0.000;2023-07-31T16:50:48;96222.50;;;20.77;58.69
48774;BME280;34576;0.000;0.000;2023-07-31T16:57:49;96218.69;;;20.78;58.48
48774;BME280;34576;0.000;0.000;2023-07-31T17:04:49;96208.00;;;20.78;58.72
48774;BME280;34576;0.000;0.000;2023-07-31T17:11:49;96183.47;;;20.76;58.59
48774;BME280;34576;0.000;0.000;2023-07-31T17:18:49;96177.72;;;20.82;58.84
48774;BME280;34576;0.000;0.000;2023-07-31T17:25:50;96186.63;;;20.78;58.88
48774;BME280;34576;0.000;0.000;2023-07-31T17:32:50;96204.13;;;20.84;59.18
48774;BME280;34576;0.000;0.000;2023-07-31T17:39:50;96203.63;;;20.82;59.53
48774;BME280;34576;0.000;0.000;2023-07-31T17:46:51;96192.94;;;20.82;59.90
48774;BME280;34576;0.000;0.000;2023-07-31T17:53:51;96191.84;;;20.83;59.94
48774;BME280;34576;0.000;0.000;2023-07-31T18:00:52;96196.91;;;20.84;60.18
48774;BME280;34576;0.000;0.000;2023-07-31T18:07:52;96193.75;;;20.82;59.97
48774;BME280;34576;0.000;0.000;2023-07-31T18:14:52;96182.75;;;20.84;59.86
48774;BME280;34576;0.000;0.000;2023-07-31T18:21:53;96188.56;;;20.86;60.60
48774;BME280;34576;0.000;0.000;2023-07-31T18:28:56;96179.00;;;20.85;60.36
48774;BME280;34576;0.000;0.000;2023-07-31T18:35:56;96165.78;;;20.89;60.95
48774;BME280;34576;0.000;0.000;2023-07-31T18:42:56;96157.59;;;20.85;60.10
48774;BME280;34576;0.000;0.000;2023-07-31T18:49:57;96179.00;;;20.85;59.89
48774;BME280;34576;0.000;0.000;2023-07-31T18:56:57;96181.66;;;20.85;59.79
48774;BME280;34576;0.000;0.000;2023-07-31T19:03:57;96149.59;;;20.85;59.65
48774;BME280;34576;0.000;0.000;2023-07-31T19:11:01;96145.03;;;20.85;59.99
48774;BME280;34576;0.000;0.000;2023-07-31T19:18:02;96145.78;;;20.86;59.69
48774;BME280;34576;0.000;0.000;2023-07-31T19:25:03;96134.00;;;20.87;59.84
48774;BME280;34576;0.000;0.000;2023-07-31T19:32:04;96151.63;;;20.88;59.66
48774;BME280;34576;0.000;0.000;2023-07-31T19:39:04;96137.16;;;20.89;60.00
48774;BME280;34576;0.000;0.000;2023-07-31T19:46:04;96124.59;;;20.90;60.17
48774;BME280;34576;0.000;0.000;2023-07-31T19:53:05;96137.66;;;20.91;60.08
48774;BME280;34576;0.000;0.000;2023-07-31T20:00:05;96127.75;;;20.92;60.12
48774;BME280;34576;0.000;0.000;2023-07-31T20:07:10;96130.09;;;20.93;60.59
48774;BME280;34576;0.000;0.000;2023-07-31T20:14:10;96128.25;;;20.94;60.47
48774;BME280;34576;0.000;0.000;2023-07-31T20:21:10;96110.31;;;20.94;60.55
48774;BME280;34576;0.000;0.000;2023-07-31T20:28:11;96109.22;;;20.95;60.84
48774;BME280;34576;0.000;0.000;2023-07-31T20:35:11;96107.31;;;20.96;60.92
48774;BME280;34576;0.000;0.000;2023-07-31T20:42:11;96092.06;;;20.96;61.25
48774;BME280;34576;0.000;0.000;2023-07-31T20:49:14;96104.34;;;20.97;61.05
48774;BME280;34576;0.000;0.000;2023-07-31T20:56:14;96100.56;;;20.98;61.67
48774;BME280;34576;0.000;0.000;2023-07-31T21:03:14;96118.19;;;20.99;61.61
48774;BME280;34576;0.000;0.000;2023-07-31T21:10:15;96110.81;;;21.05;61.20
48774;BME280;34576;0.000;0.000;2023-07-31T21:17:15;96097.78;;;21.03;61.39
48774;BME280;34576;0.000;0.000;2023-07-31T21:24:15;96085.00;;;21.00;61.82
48774;BME280;34576;0.000;0.000;2023-07-31T21:31:16;96081.53;;;21.00;62.23
48774;BME280;34576;0.000;0.000;2023-07-31T21:38:16;96076.28;;;20.86;63.29
48774;BME280;34576;0.000;0.000;2023-07-31T21:45:16;96084.22;;;21.00;60.96
48774;BME280;34576;0.000;0.000;2023-07-31T21:52:17;96068.19;;;21.00;59.65
48774;BME280;34576;0.000;0.000;2023-07-31T21:59:17;96055.59;;;21.00;59.09
48774;BME280;34576;0.000;0.000;2023-07-31T22:06:17;96038.25;;;20.89;62.09
48774;BME280;34576;0.000;0.000;2023-07-31T22:13:18;96034.91;;;20.83;63.35
48774;BME280;34576;0.000;0.000;2023-07-31T22:20:18;96029.69;;;20.69;64.07
48774;BME280;34576;0.000;0.000;2023-07-31T22:27:18;96017.00;;;20.75;64.55
48774;BME280;34576;0.000;0.000;2023-07-31T22:34:19;95972.53;;;20.88;63.59
48774;BME280;34576;0.000;0.000;2023-07-31T22:41:19;95944.59;;;20.63;65.35
48774;BME280;34576;0.000;0.000;2023-07-31T22:48:19;95941.41;;;20.52;66.10
48774;BME280;34576;0.000;0.000;2023-07-31T22:55:19;95937.03;;;20.65;65.54
48774;BME280;34576;0.000;0.000;2023-07-31T23:02:20;95915.22;;;20.63;66.13
48774;BME280;34576;0.000;0.000;2023-07-31T23:09:20;95919.91;;;20.57;66.83
48774;BME280;34576;0.000;0.000;2023-07-31T23:16:20;95928.25;;;20.64;66.52
48774;BME280;34576;0.000;0.000;2023-07-31T23:23:21;95916.28;;;20.62;66.93
48774;BME280;34576;0.000;0.000;2023-07-31T23:30:21;95909.28;;;20.75;66.52
48774;BME280;34576;0.000;0.000;2023-07-31T23:37:21;95870.56;;;20.63;66.72
48774;BME280;34576;0.000;0.000;2023-07-31T23:44:21;95873.47;;;20.27;68.10
48774;BME280;34576;0.000;0.000;2023-07-31T23:51:22;95853.84;;;20.40;67.58
48774;BME280;34576;0.000;0.000;2023-07-31T23:58:22;95849.34;;;20.58;66.91
